Time;durP1;ratioP1;P1;durP2;ratioP2;P2;SDS_P1;SDS_P2;PMS_P1;PMS_P2;Temp;Humidity;BMP_temperature;BMP_pressure;BME280_temperature;BME280_humidity;BME280_pressure;Samples;Min_cycle;Max_cycle;Signal;HPM_P1;HPM_P2
2024/02/14 00:00:53;;;;;;;2.05;1.05;;;9.20;99.90;;;;;;5045410;23;20218;-95
2024/02/14 00:02:54;;;;;;;1.95;1.45;;;9.20;99.90;;;;;;5046461;23;20150;-94
2024/02/14 00:04:55;;;;;;;2.83;0.88;;;9.30;99.90;;;;;;5045846;23;20241;-95
2024/02/14 00:06:56;;;;;;;1.65;1.15;;;9.30;99.90;;;;;;5045762;23;20174;-96
2024/02/14 00:08:59;;;;;;;1.90;1.13;;;9.30;99.90;;;;;;5045885;23;20651;-95
2024/02/14 00:11:02;;;;;;;4.45;2.00;;;9.30;99.90;;;;;;5046595;23;20590;-95
2024/02/14 00:13:05;;;;;;;3.25;1.25;;;9.30;99.90;;;;;;5046090;23;20190;-95
2024/02/14 00:15:07;;;;;;;2.08;1.25;;;9.30;99.90;;;;;;5070237;23;20161;-96
2024/02/14 00:17:12;;;;;;;1.38;0.90;;;9.30;99.90;;;;;;5070186;23;20651;-94
2024/02/14 00:19:13;;;;;;;1.17;0.82;;;9.30;99.90;;;;;;5070295;23;20154;-95
2024/02/14 00:21:14;;;;;;;2.03;1.27;;;9.30;99.90;;;;;;5045444;23;20178;-94
2024/02/14 00:23:15;;;;;;;7.57;0.98;;;9.30;99.90;;;;;;5045513;23;20166;-96
2024/02/14 00:25:16;;;;;;;1.73;1.13;;;9.30;99.90;;;;;;5069846;23;20188;-94
2024/02/14 00:27:17;;;;;;;0.93;0.52;;;9.30;99.90;;;;;;5071053;23;20248;-93
2024/02/14 00:29:18;;;;;;;1.92;1.25;;;9.40;99.90;;;;;;5045308;23;20163;-94
2024/02/14 00:31:20;;;;;;;7.50;1.08;;;9.40;99.90;;;;;;5069894;23;20474;-94
2024/02/14 00:33:22;;;;;;;1.95;0.88;;;9.50;99.90;;;;;;5021828;23;20202;-95
2024/02/14 00:35:23;;;;;;;1.73;1.10;;;9.50;99.90;;;;;;5021232;23;20155;-95
2024/02/14 00:37:24;;;;;;;1.25;0.85;;;9.50;99.90;;;;;;5021687;23;20189;-94
2024/02/14 00:39:25;;;;;;;1.42;0.75;;;9.50;99.90;;;;;;5069859;23;20154;-95
2024/02/14 00:41:29;;;;;;;2.30;0.88;;;9.50;99.90;;;;;;5045292;23;20530;-95
2024/02/14 00:43:30;;;;;;;1.60;1.00;;;9.50;99.90;;;;;;5045123;23;20158;-95
2024/02/14 00:45:31;;;;;;;3.63;0.88;;;9.50;99.90;;;;;;5045478;23;20464;-95
2024/02/14 00:47:36;;;;;;;2.42;1.35;;;9.50;99.90;;;;;;5045262;23;20206;-95
2024/02/14 00:49:37;;;;;;;0.90;0.55;;;9.60;99.90;;;;;;5045163;23;20154;-94
2024/02/14 00:51:39;;;;;;;1.33;0.65;;;9.60;99.90;;;;;;5045268;23;20154;-96
2024/02/14 00:53:40;;;;;;;2.17;1.33;;;9.60;99.90;;;;;;5045299;23;20182;-94
2024/02/14 00:55:41;;;;;;;4.32;1.88;;;9.60;99.90;;;;;;5045001;23;20169;-94
2024/02/14 00:57:42;;;;;;;1.30;0.95;;;9.70;99.90;;;;;;5045816;23;20501;-95
2024/02/14 00:59:43;;;;;;;1.90;1.20;;;9.60;99.90;;;;;;5045130;23;20245;-94
2024/02/14 01:01:44;;;;;;;0.77;0.52;;;9.70;99.90;;;;;;5045767;23;20166;-95
2024/02/14 01:03:46;;;;;;;2.55;1.13;;;9.70;99.90;;;;;;5044883;23;20254;-95
2024/02/14 01:05:48;;;;;;;1.60;1.00;;;9.70;99.90;;;;;;5045316;23;20209;-95
2024/02/14 01:07:49;;;;;;;3.05;1.65;;;9.80;99.90;;;;;;5045899;23;20268;-95
2024/02/14 01:09:50;;;;;;;1.30;0.93;;;9.70;99.90;;;;;;5069585;23;20154;-94
2024/02/14 01:11:51;;;;;;;1.65;1.02;;;9.70;99.90;;;;;;5045976;23;20190;-95
2024/02/14 01:13:54;;;;;;;1.05;0.75;;;9.70;99.90;;;;;;5045920;23;20162;-94
2024/02/14 01:15:55;;;;;;;1.27;1.02;;;9.70;99.90;;;;;;5045885;23;20153;-95
2024/02/14 01:17:56;;;;;;;2.13;1.25;;;9.60;99.90;;;;;;5045560;23;20187;-95
2024/02/14 01:19:58;;;;;;;1.70;1.30;;;9.60;99.90;;;;;;5045180;23;20597;-95
2024/02/14 01:21:59;;;;;;;2.78;1.10;;;9.60;99.90;;;;;;5045010;23;20571;-95
2024/02/14 01:23:59;;;;;;;2.17;1.42;;;9.60;99.90;;;;;;5044954;23;20304;-94
2024/02/14 01:26:01;;;;;;;1.98;1.25;;;9.60;99.90;;;;;;5044597;23;20676;-94
2024/02/14 01:28:04;;;;;;;1.42;0.90;;;9.60;99.90;;;;;;5044930;23;20514;-94
2024/02/14 01:30:06;;;;;;;2.60;1.13;;;9.60;99.90;;;;;;5044926;23;20253;-93
2024/02/14 01:32:07;;;;;;;4.00;1.40;;;9.60;99.90;;;;;;5044624;23;20210;-95
2024/02/14 01:34:08;;;;;;;6.43;2.05;;;9.60;99.90;;;;;;5044930;23;20155;-95
2024/02/14 01:36:09;;;;;;;1.65;1.13;;;9.60;99.90;;;;;;5045193;23;20609;-94
2024/02/14 01:38:12;;;;;;;2.22;1.00;;;9.60;99.90;;;;;;5068944;23;20170;-94
2024/02/14 01:40:13;;;;;;;2.30;1.25;;;9.60;99.90;;;;;;5045024;23;20161;-94
2024/02/14 01:42:14;;;;;;;2.00;1.15;;;9.60;99.90;;;;;;5069222;23;20236;-94
2024/02/14 01:44:16;;;;;;;2.60;1.10;;;9.60;99.90;;;;;;5044807;23;20485;-94
2024/02/14 01:46:18;;;;;;;1.15;0.70;;;9.60;99.90;;;;;;5044969;23;20162;-93
2024/02/14 01:48:20;;;;;;;1.35;0.90;;;9.50;99.90;;;;;;5044429;23;20170;-95
2024/02/14 01:50:29;;;;;;;2.60;1.38;;;9.60;99.90;;;;;;5045330;23;20186;-94
2024/02/14 01:52:30;;;;;;;2.58;1.30;;;9.60;99.90;;;;;;5044880;23;20201;-95
2024/02/14 01:54:31;;;;;;;3.10;1.67;;;9.60;99.90;;;;;;5044515;23;20181;-94
2024/02/14 01:56:33;;;;;;;1.88;0.98;;;9.70;99.90;;;;;;5044917;23;20672;-93
2024/02/14 01:58:35;;;;;;;3.08;1.60;;;9.60;99.90;;;;;;5021322;23;20184;-95
2024/02/14 02:00:36;;;;;;;2.85;1.60;;;9.60;99.90;;;;;;5044747;23;20162;-94
2024/02/14 02:02:41;;;;;;;4.75;1.60;;;9.60;99.90;;;;;;5045259;23;20237;-95
2024/02/14 02:04:48;;;;;;;4.15;1.50;;;9.60;99.90;;;;;;5045599;23;20208;-94
2024/02/14 02:06:49;;;;;;;9.80;2.05;;;9.70;99.90;;;;;;5044630;23;20154;-94
2024/02/14 02:08:50;;;;;;;3.17;1.77;;;9.60;99.90;;;;;;5044613;23;20198;-93
2024/02/14 02:10:54;;;;;;;6.68;1.73;;;9.70;99.90;;;;;;5045024;23;20165;-95
2024/02/14 02:13:00;;;;;;;2.83;1.80;;;9.60;99.90;;;;;;5068751;23;20224;-93
2024/02/14 02:15:02;;;;;;;2.30;1.20;;;9.70;99.90;;;;;;5044461;23;20513;-95
2024/02/14 02:17:07;;;;;;;1.67;1.10;;;9.70;99.90;;;;;;5044891;23;20166;-94
2024/02/14 02:19:10;;;;;;;1.05;0.80;;;9.60;99.90;;;;;;5045000;23;20157;-95
2024/02/14 02:21:12;;;;;;;3.45;1.63;;;9.60;99.90;;;;;;5044499;23;20188;-94
2024/02/14 02:23:19;;;;;;;3.90;1.40;;;9.70;99.90;;;;;;5044752;23;20494;-95
2024/02/14 02:25:25;;;;;;;2.28;1.35;;;9.70;99.90;;;;;;5045559;23;20233;-94
2024/02/14 02:27:25;;;;;;;2.45;1.25;;;9.70;99.90;;;;;;5070248;23;20264;-93
2024/02/14 02:29:29;;;;;;;5.60;1.73;;;9.70;99.90;;;;;;5046662;23;20202;-94
2024/02/14 02:31:30;;;;;;;2.78;1.20;;;9.70;99.90;;;;;;5070210;23;20154;-94
2024/02/14 02:33:32;;;;;;;5.78;1.58;;;9.80;99.90;;;;;;5046018;23;20423;-95
2024/02/14 02:35:34;;;;;;;1.27;0.88;;;9.80;99.90;;;;;;5046567;23;20552;-93
2024/02/14 02:37:35;;;;;;;1.58;1.00;;;9.80;99.90;;;;;;5046028;23;20185;-94
2024/02/14 02:39:36;;;;;;;2.42;1.38;;;9.80;99.90;;;;;;5046209;23;20241;-95
2024/02/14 02:41:37;;;;;;;2.30;1.30;;;9.80;99.90;;;;;;5071031;23;20157;-95
2024/02/14 02:43:38;;;;;;;1.48;0.93;;;9.90;99.90;;;;;;5070074;23;20150;-95
2024/02/14 02:45:39;;;;;;;1.83;1.05;;;9.90;99.90;;;;;;5046307;23;20171;-95
2024/02/14 02:47:40;;;;;;;1.63;1.00;;;9.90;99.90;;;;;;5045789;23;20261;-94
2024/02/14 02:49:42;;;;;;;4.25;2.05;;;9.90;99.90;;;;;;5046046;23;20249;-94
2024/02/14 02:51:43;;;;;;;2.85;1.00;;;10.00;99.90;;;;;;5045731;23;20161;-94
2024/02/14 02:53:44;;;;;;;2.95;1.80;;;10.00;99.90;;;;;;5069894;23;20166;-94
2024/02/14 02:55:45;;;;;;;1.90;1.05;;;10.00;99.90;;;;;;5069716;23;20466;-95
2024/02/14 02:57:46;;;;;;;3.33;1.27;;;10.00;99.90;;;;;;5046261;23;20178;-94
2024/02/14 02:59:48;;;;;;;1.52;0.98;;;10.00;99.90;;;;;;5045914;23;20687;-94
2024/02/14 03:01:49;;;;;;;1.85;1.15;;;10.00;99.90;;;;;;5046321;23;20178;-94
2024/02/14 03:03:50;;;;;;;2.13;1.17;;;10.00;99.90;;;;;;5046200;23;20241;-95
2024/02/14 03:05:55;;;;;;;4.72;1.27;;;10.00;99.90;;;;;;5046056;23;20154;-95
2024/02/14 03:07:58;;;;;;;3.13;1.77;;;10.10;99.90;;;;;;5069699;23;20865;-94
2024/02/14 03:09:59;;;;;;;1.50;1.05;;;10.10;99.90;;;;;;5070260;23;20160;-94
2024/02/14 03:12:00;;;;;;;2.22;1.23;;;10.10;99.90;;;;;;5069889;23;20529;-94
2024/02/14 03:14:01;;;;;;;1.42;0.88;;;10.10;99.90;;;;;;5045816;23;20165;-95
2024/02/14 03:16:04;;;;;;;4.80;1.50;;;10.20;99.90;;;;;;5046025;23;20150;-94
2024/02/14 03:18:09;;;;;;;8.02;1.48;;;10.10;99.90;;;;;;5045673;23;20178;-95
2024/02/14 03:20:15;;;;;;;0.80;0.63;;;10.20;99.90;;;;;;5045396;23;20201;-93
2024/02/14 03:22:18;;;;;;;6.53;2.05;;;10.10;99.90;;;;;;5045919;23;20150;-95
2024/02/14 03:24:20;;;;;;;5.07;0.93;;;10.10;99.90;;;;;;5045874;23;20165;-94
2024/02/14 03:26:21;;;;;;;5.20;1.67;;;10.10;99.90;;;;;;5070640;23;20162;-94
2024/02/14 03:28:29;;;;;;;2.70;1.30;;;10.20;99.90;;;;;;5047115;23;20239;-95
2024/02/14 03:30:30;;;;;;;4.53;1.40;;;10.10;99.90;;;;;;5046767;23;20149;-94
2024/02/14 03:32:32;;;;;;;5.97;1.10;;;10.00;99.90;;;;;;5045986;23;21009;-94
2024/02/14 03:34:36;;;;;;;2.17;1.25;;;9.90;99.90;;;;;;5046132;23;20521;-93
2024/02/14 03:36:39;;;;;;;6.22;1.85;;;9.90;99.90;;;;;;5045010;23;20157;-94
2024/02/14 03:38:41;;;;;;;6.95;2.40;;;9.90;99.90;;;;;;5045140;23;20218;-94
2024/02/14 03:40:45;;;;;;;2.20;1.08;;;9.90;99.90;;;;;;5045365;23;20158;-95
2024/02/14 03:42:46;;;;;;;1.20;0.95;;;9.90;99.90;;;;;;5045574;23;20209;-95
2024/02/14 03:44:47;;;;;;;3.70;1.30;;;9.80;99.90;;;;;;5045426;23;20158;-96
2024/02/14 03:46:49;;;;;;;6.68;2.35;;;9.80;99.90;;;;;;5069519;23;20477;-93
2024/02/14 03:48:50;;;;;;;3.10;1.63;;;9.80;99.90;;;;;;5045507;23;20174;-95
2024/02/14 03:50:57;;;;;;;9.15;2.20;;;9.90;99.90;;;;;;5069855;23;20156;-95
2024/02/14 03:52:58;;;;;;;3.05;1.40;;;9.90;99.90;;;;;;5045525;23;20261;-93
2024/02/14 03:55:00;;;;;;;2.90;1.60;;;9.90;99.90;;;;;;5045378;23;20211;-94
2024/02/14 03:57:08;;;;;;;4.25;1.63;;;9.90;99.90;;;;;;5045319;23;20159;-96
2024/02/14 03:59:11;;;;;;;2.35;1.02;;;10.00;99.90;;;;;;5045385;23;20154;-95
2024/02/14 04:01:12;;;;;;;3.55;1.30;;;9.90;99.90;;;;;;5045213;23;20205;-94
2024/02/14 04:03:13;;;;;;;4.47;2.08;;;9.90;99.90;;;;;;5045137;23;20612;-95
2024/02/14 04:05:15;;;;;;;2.40;1.63;;;9.90;99.90;;;;;;5045335;23;20154;-95
2024/02/14 04:07:24;;;;;;;2.97;1.35;;;10.00;99.90;;;;;;5045543;23;20159;-95
2024/02/14 04:09:25;;;;;;;3.22;2.13;;;9.90;99.90;;;;;;5045189;23;20164;-93
2024/02/14 04:11:26;;;;;;;2.25;1.15;;;9.90;99.90;;;;;;5045384;23;20162;-95
2024/02/14 04:13:32;;;;;;;2.40;0.90;;;10.00;99.90;;;;;;5045554;23;20194;-94
2024/02/14 04:15:42;;;;;;;3.08;1.50;;;10.00;99.90;;;;;;5046999;23;20166;-95
2024/02/14 08:40:57;;;;;;;1.95;1.27;;;11.10;99.90;;;;;;5081251;23;20208;-95
2024/02/14 10:10:47;;;;;;;2.13;1.38;;;11.40;99.90;;;;;;5097386;23;20500;-95
2024/02/14 11:21:26;;;;;;;2.88;1.17;;;11.80;99.90;;;;;;5091155;23;20222;-94
2024/02/14 11:23:31;;;;;;;3.70;1.35;;;11.80;99.90;;;;;;5045431;23;20176;-93
2024/02/14 11:25:51;;;;;;;1.98;1.27;;;11.80;99.90;;;;;;5046803;23;20178;-94
2024/02/14 11:30:57;;;;;;;2.17;1.45;;;11.90;99.90;;;;;;5025797;23;20185;-93
2024/02/14 11:33:16;;;;;;;1.65;1.15;;;11.90;99.90;;;;;;5015363;23;20267;-93
2024/02/14 11:35:32;;;;;;;3.70;1.48;;;11.90;99.90;;;;;;5048281;23;20193;-95
2024/02/14 11:37:54;;;;;;;3.10;1.65;;;11.90;99.90;;;;;;5046971;23;20194;-93
2024/02/14 11:40:09;;;;;;;2.53;1.42;;;12.00;99.90;;;;;;5048519;23;20249;-94
2024/02/14 11:42:55;;;;;;;2.42;1.58;;;12.00;99.90;;;;;;5070083;23;20293;-95
2024/02/14 11:45:25;;;;;;;2.58;1.42;;;12.00;99.90;;;;;;5046243;23;20205;-94
2024/02/14 11:47:34;;;;;;;3.53;1.80;;;12.10;99.90;;;;;;5045752;23;20489;-94
2024/02/14 11:49:58;;;;;;;5.03;1.50;;;12.10;99.90;;;;;;5046106;23;20213;-93
2024/02/14 11:51:59;;;;;;;2.55;1.40;;;12.10;99.90;;;;;;5032706;23;20162;-93
2024/02/14 11:54:06;;;;;;;2.17;1.05;;;12.20;99.90;;;;;;5046147;23;20154;-95
2024/02/14 11:56:34;;;;;;;4.80;1.80;;;12.20;99.90;;;;;;5069544;23;20161;-96
2024/02/14 11:58:41;;;;;;;2.45;1.30;;;12.20;99.90;;;;;;5045627;23;20208;-94
2024/02/14 12:00:46;;;;;;;3.72;1.50;;;12.20;99.90;;;;;;5048223;23;20155;-96
2024/02/14 12:03:05;;;;;;;2.42;1.67;;;12.20;99.90;;;;;;5046529;23;20178;-95
2024/02/14 12:05:19;;;;;;;5.60;1.50;;;12.30;99.90;;;;;;5070083;23;20146;-93
2024/02/14 12:07:21;;;;;;;3.17;1.90;;;12.30;99.90;;;;;;5046418;23;20593;-94
2024/02/14 12:10:06;;;;;;;5.65;1.95;;;12.40;99.90;;;;;;5071024;23;20208;-94
2024/02/14 12:12:23;;;;;;;1.90;0.95;;;12.40;99.90;;;;;;5072629;23;20193;-94
2024/02/14 12:14:49;;;;;;;;;;;;;;;;;;;;;
2024/02/14 12:17:23;;;;;;;2.97;1.75;;;12.30;99.90;;;;;;5069726;23;20172;-95
2024/02/14 12:19:29;;;;;;;3.55;1.45;;;12.40;99.90;;;;;;5046323;23;20248;-94
2024/02/14 12:21:39;;;;;;;2.53;1.55;;;12.50;99.90;;;;;;5069659;23;20596;-93
2024/02/14 12:24:03;;;;;;;1.88;1.30;;;12.50;99.90;;;;;;5045200;23;20156;-93
2024/02/14 12:26:19;;;;;;;;;;;;;;;;;;;;;
2024/02/14 12:28:23;;;;;;;12.40;1.13;;;12.60;99.90;;;;;;5069750;23;20225;-93
2024/02/14 12:30:50;;;;;;;2.20;1.25;;;12.60;99.90;;;;;;5069271;23;20160;-94
2024/02/14 12:33:09;;;;;;;3.38;1.50;;;12.70;99.90;;;;;;5045034;23;20221;-94
2024/02/14 12:35:12;;;;;;;3.13;1.20;;;12.60;99.90;;;;;;5045409;23;20150;-94
2024/02/14 12:37:30;;;;;;;3.88;1.25;;;12.60;99.90;;;;;;5069439;23;20263;-94
2024/02/14 12:39:40;;;;;;;2.47;1.05;;;12.60;99.90;;;;;;5046911;23;20150;-96
2024/02/14 12:41:44;;;;;;;5.63;1.25;;;12.60;99.90;;;;;;5046436;23;20190;-94
2024/02/14 12:43:54;;;;;;;6.28;1.55;;;12.60;99.90;;;;;;5045817;23;20217;-95
2024/02/14 12:45:56;;;;;;;2.92;1.48;;;12.70;99.90;;;;;;5045235;23;20155;-95
2024/02/14 12:48:29;;;;;;;4.55;1.80;;;12.70;99.90;;;;;;5077940;23;20193;-95
2024/02/14 12:51:11;;;;;;;13.43;5.43;;;12.80;99.90;;;;;;5056404;23;20153;-94
2024/02/14 12:53:22;;;;;;;5.80;2.30;;;12.90;99.90;;;;;;5062343;23;20276;-95
2024/02/14 12:55:47;;;;;;;4.63;1.98;;;12.80;99.90;;;;;;5047160;23;20154;-95
2024/02/14 12:58:13;;;;;;;6.05;0.60;;;12.90;99.90;;;;;;5070914;23;20173;-94
2024/02/14 13:00:21;;;;;;;2.33;1.17;;;12.80;99.90;;;;;;5049020;23;20470;-95
2024/02/14 13:02:31;;;;;;;2.17;1.38;;;12.70;99.90;;;;;;5048189;23;20213;-95
2024/02/14 13:04:36;;;;;;;4.47;1.20;;;12.80;99.90;;;;;;5024144;23;20206;-95
2024/02/14 13:06:37;;;;;;;4.85;0.82;;;12.80;99.90;;;;;;5071673;23;20162;-94
2024/02/14 13:08:50;;;;;;;4.65;1.92;;;12.80;99.90;;;;;;5069638;23;20169;-95
2024/02/14 13:11:18;;;;;;;;;;;;;;;;;;;;;
2024/02/14 13:13:24;;;;;;;1.17;0.63;;;12.80;99.90;;;;;;5071137;23;20241;-94
2024/02/14 13:15:32;;;;;;;4.03;1.17;;;12.80;99.90;;;;;;5045184;23;20218;-94
2024/02/14 13:17:35;;;;;;;0.80;0.70;;;12.90;99.90;;;;;;5045566;23;20178;-94
2024/02/14 13:19:57;;;;;;;7.78;1.23;;;12.80;99.90;;;;;;5044919;23;20194;-95
2024/02/14 13:25:18;;;;;;;3.40;1.20;;;12.90;99.90;;;;;;5038387;23;20690;-94
2024/02/14 13:27:45;;;;;;;3.67;1.15;;;12.80;99.90;;;;;;5047332;23;20477;-95
2024/02/14 13:29:47;;;;;;;1.02;0.60;;;12.80;99.90;;;;;;5046955;23;20193;-96
2024/02/14 13:32:05;;;;;;;4.53;0.80;;;12.80;99.90;;;;;;5047922;23;20214;-94
2024/02/14 13:34:23;;;;;;;1.67;0.90;;;12.90;99.90;;;;;;5048509;23;20165;-95
2024/02/14 13:36:38;;;;;;;2.35;1.20;;;12.80;99.90;;;;;;5070690;23;20244;-96
2024/02/14 13:38:39;;;;;;;1.77;0.70;;;12.90;99.90;;;;;;5045583;23;20197;-95
2024/02/14 13:41:17;;;;;;;;;;;;;;;;;;;;;
2024/02/14 13:43:33;;;;;;;;;;;;;;;;;;;;;
2024/02/14 13:46:10;;;;;;;1.40;0.70;;;12.90;99.90;;;;;;5070694;23;20562;-95
2024/02/14 13:48:56;;;;;;;3.15;0.90;;;12.90;99.90;;;;;;5047520;23;20181;-95
2024/02/14 13:51:52;;;;;;;5.00;1.05;;;12.90;99.90;;;;;;5066288;23;20160;-95
2024/02/14 13:54:08;;;;;;;0.90;0.60;;;13.00;99.90;;;;;;5004518;23;20228;-94
2024/02/14 13:56:26;;;;;;;3.03;0.90;;;13.00;99.90;;;;;;5069658;23;20142;-93
2024/02/14 13:58:50;;;;;;;1.35;0.90;;;13.10;99.90;;;;;;5045347;23;20182;-94
2024/02/14 14:01:04;;;;;;;4.07;0.93;;;13.00;99.90;;;;;;5035006;23;20190;-95
2024/02/14 14:03:32;;;;;;;0.98;0.65;;;13.00;99.90;;;;;;5072192;23;20161;-95
2024/02/14 14:05:42;;;;;;;2.30;1.27;;;13.00;99.90;;;;;;5047147;23;20190;-95
2024/02/14 14:07:43;;;;;;;2.05;0.80;;;13.00;99.90;;;;;;5069385;23;20640;-92
2024/02/14 14:09:44;;;;;;;0.65;0.57;;;13.10;99.90;;;;;;5045673;23;20195;-93
2024/02/14 14:11:47;;;;;;;1.40;0.73;;;13.10;99.90;;;;;;5047380;23;20163;-93
2024/02/14 14:13:49;;;;;;;1.63;0.82;;;13.10;99.90;;;;;;5045661;23;20198;-94
2024/02/14 14:15:51;;;;;;;1.95;0.90;;;13.00;99.90;;;;;;5069394;23;20585;-94
2024/02/14 14:17:52;;;;;;;0.57;0.25;;;13.10;99.90;;;;;;5044798;23;20218;-92
2024/02/14 14:19:54;;;;;;;1.63;0.70;;;13.10;99.90;;;;;;5045909;23;20205;-95
2024/02/14 14:21:56;;;;;;;4.05;1.23;;;13.20;99.90;;;;;;5046926;23;20629;-93
2024/02/14 14:23:57;;;;;;;2.78;0.80;;;13.10;99.90;;;;;;5046275;23;20158;-93
2024/02/14 14:25:58;;;;;;;2.13;0.88;;;13.20;99.90;;;;;;5046567;23;20151;-92
2024/02/14 14:28:00;;;;;;;3.45;0.90;;;13.20;99.90;;;;;;5047503;23;20269;-95
2024/02/14 14:30:01;;;;;;;2.35;0.98;;;13.10;99.90;;;;;;5071823;23;20185;-94
2024/02/14 14:32:02;;;;;;;2.42;0.88;;;13.20;99.90;;;;;;5048686;23;20154;-91
2024/02/14 14:34:03;;;;;;;0.90;0.40;;;13.20;99.90;;;;;;5046400;23;20158;-93
2024/02/14 14:36:05;;;;;;;3.80;1.05;;;13.10;99.90;;;;;;5047172;23;20233;-94
2024/02/14 14:38:06;;;;;;;2.92;1.25;;;13.10;99.90;;;;;;5047732;23;20193;-93
2024/02/14 14:40:09;;;;;;;2.75;1.35;;;13.10;99.90;;;;;;5047994;23;20151;-93
2024/02/14 14:42:10;;;;;;;3.30;0.68;;;13.10;99.90;;;;;;5047171;23;20163;-92
2024/02/14 14:44:11;;;;;;;5.30;1.00;;;13.20;99.90;;;;;;5048637;23;20162;-93
2024/02/14 14:46:13;;;;;;;3.38;1.33;;;13.20;99.90;;;;;;5046386;23;20274;-94
2024/02/14 14:48:13;;;;;;;1.13;0.60;;;13.20;99.90;;;;;;5046547;23;20170;-94
2024/02/14 14:50:19;;;;;;;2.70;1.20;;;13.20;99.90;;;;;;5070230;23;20509;-92
2024/02/14 14:52:20;;;;;;;5.72;0.80;;;13.20;99.90;;;;;;5046213;23;20181;-93
2024/02/14 14:54:21;;;;;;;3.15;1.42;;;13.20;99.90;;;;;;5046204;23;20163;-92
2024/02/14 14:56:25;;;;;;;0.95;0.40;;;13.20;99.90;;;;;;5045997;23;20163;-91
2024/02/14 14:58:33;;;;;;;1.13;0.68;;;13.10;99.90;;;;;;5070583;23;20177;-92
2024/02/14 15:00:34;;;;;;;3.05;1.05;;;13.10;99.90;;;;;;5045996;23;20157;-93
2024/02/14 15:02:35;;;;;;;1.75;0.95;;;13.10;99.90;;;;;;5070209;23;20181;-92
2024/02/14 15:04:37;;;;;;;2.67;1.35;;;13.10;99.90;;;;;;5046658;23;20162;-92
2024/02/14 15:06:38;;;;;;;2.47;0.95;;;13.10;99.90;;;;;;5047666;23;20158;-93
2024/02/14 15:08:39;;;;;;;4.63;0.93;;;13.10;99.90;;;;;;5070444;23;20173;-92
2024/02/14 15:10:40;;;;;;;2.22;0.95;;;13.10;99.90;;;;;;5046048;23;20165;-93
2024/02/14 15:12:41;;;;;;;1.25;0.70;;;13.10;99.90;;;;;;5046388;23;20197;-93
2024/02/14 15:14:42;;;;;;;1.20;0.60;;;13.10;99.90;;;;;;5047409;23;20513;-93
2024/02/14 15:16:45;;;;;;;4.53;1.02;;;13.10;99.90;;;;;;5047194;23;20153;-94
2024/02/14 15:18:54;;;;;;;2.25;0.32;;;13.10;99.90;;;;;;5072581;23;20178;-96
2024/02/14 15:21:03;;;;;;;3.35;0.80;;;13.20;99.90;;;;;;5046179;23;20154;-94
2024/02/14 15:23:09;;;;;;;2.42;0.60;;;13.20;99.90;;;;;;5048896;23;20142;-94
2024/02/14 15:25:13;;;;;;;1.73;1.17;;;13.20;99.90;;;;;;5048836;23;20163;-94
2024/02/14 15:27:21;;;;;;;2.75;0.60;;;13.20;99.90;;;;;;5048132;23;20183;-94
2024/02/14 15:34:30;;;;;;;1.67;0.63;;;13.30;99.90;;;;;;5070922;23;20165;-95
2024/02/14 15:36:34;;;;;;;1.35;0.57;;;13.30;99.90;;;;;;5045577;23;20616;-95
2024/02/14 15:38:38;;;;;;;1.85;0.82;;;13.40;99.90;;;;;;5045841;23;20185;-95
2024/02/14 15:40:52;;;;;;;1.20;0.57;;;13.30;99.90;;;;;;5050071;23;20162;-94
2024/02/14 15:43:03;;;;;;;0.95;0.52;;;13.40;99.90;;;;;;5045423;23;20166;-96
2024/02/14 15:45:10;;;;;;;5.07;1.02;;;13.30;99.90;;;;;;5069840;23;20164;-93
2024/02/14 15:47:15;;;;;;;5.47;1.17;;;13.40;99.90;;;;;;5046761;23;20154;-94
2024/02/14 15:49:27;;;;;;;3.08;0.73;;;13.40;99.90;;;;;;5045460;23;20163;-94
2024/02/14 15:51:28;;;;;;;2.35;1.02;;;13.40;99.90;;;;;;5045593;23;20241;-95
2024/02/14 15:53:30;;;;;;;2.10;0.77;;;13.40;99.90;;;;;;5048179;23;20193;-94
2024/02/14 15:55:42;;;;;;;7.80;0.80;;;13.40;99.90;;;;;;5046234;23;20205;-95
2024/02/14 15:57:46;;;;;;;4.80;1.00;;;13.20;99.90;;;;;;5071620;23;20185;-94
2024/02/14 15:59:49;;;;;;;1.88;0.77;;;13.20;99.90;;;;;;5070902;23;20156;-95
2024/02/14 16:01:56;;;;;;;4.72;1.00;;;13.10;99.90;;;;;;5047620;23;20221;-94
2024/02/14 16:03:59;;;;;;;2.83;0.85;;;13.10;99.90;;;;;;5045542;23;20154;-94
2024/02/14 16:06:00;;;;;;;1.73;0.80;;;13.10;99.90;;;;;;5046907;23;20194;-93
2024/02/14 16:08:15;;;;;;;1.00;0.60;;;13.10;99.90;;;;;;5069796;23;20169;-94
2024/02/14 16:10:16;;;;;;;1.08;0.52;;;13.10;99.90;;;;;;5045740;23;20186;-94
2024/02/14 16:12:20;;;;;;;2.78;0.85;;;13.10;99.90;;;;;;5021374;23;20167;-95
2024/02/14 16:14:21;;;;;;;1.88;1.23;;;13.10;99.90;;;;;;5023120;23;20159;-94
2024/02/14 16:16:22;;;;;;;5.47;1.13;;;13.00;99.90;;;;;;5047608;23;20241;-93
2024/02/14 16:18:26;;;;;;;7.45;1.05;;;13.00;99.90;;;;;;5046744;23;20182;-96
2024/02/14 16:20:27;;;;;;;4.38;0.57;;;13.00;99.90;;;;;;5045441;23;20181;-95
2024/02/14 16:22:33;;;;;;;5.28;1.40;;;13.00;99.90;;;;;;5045855;23;20178;-95
2024/02/14 16:24:46;;;;;;;5.13;0.90;;;13.10;99.90;;;;;;5048533;23;20169;-93
2024/02/14 16:26:47;;;;;;;5.10;0.55;;;13.20;99.90;;;;;;5071796;23;20699;-93
2024/02/14 16:28:48;;;;;;;1.85;0.70;;;13.10;99.90;;;;;;5045524;23;20175;-94
2024/02/14 16:30:50;;;;;;;4.53;1.15;;;13.00;99.90;;;;;;5069826;23;20153;-94
2024/02/14 16:33:00;;;;;;;3.13;0.52;;;13.00;99.90;;;;;;5045827;23;20633;-96
2024/02/14 16:35:02;;;;;;;3.85;1.33;;;13.00;99.90;;;;;;5046612;23;20161;-93
2024/02/14 16:37:03;;;;;;;1.75;1.00;;;12.90;99.90;;;;;;5045835;23;20274;-93
2024/02/14 16:39:04;;;;;;;2.35;1.08;;;12.90;99.90;;;;;;5070102;23;20153;-94
2024/02/14 16:41:08;;;;;;;4.65;1.27;;;12.90;99.90;;;;;;5045776;23;20158;-94
2024/02/14 16:43:13;;;;;;;1.90;0.90;;;12.90;99.90;;;;;;5069115;23;20181;-92
2024/02/14 16:45:20;;;;;;;3.30;0.95;;;12.90;99.90;;;;;;5045608;23;20158;-94
2024/02/14 16:47:25;;;;;;;1.15;0.75;;;12.90;99.90;;;;;;5048316;23;20181;-94
2024/02/14 16:49:26;;;;;;;4.60;0.60;;;12.90;99.90;;;;;;5050539;23;20166;-94
2024/02/14 16:51:27;;;;;;;8.75;1.20;;;12.90;99.90;;;;;;5090852;23;20138;-95
2024/02/14 16:53:30;;;;;;;1.23;0.75;;;12.90;99.90;;;;;;5062991;23;20198;-93
2024/02/14 16:55:36;;;;;;;1.23;0.80;;;12.90;99.90;;;;;;5047689;23;20545;-93
2024/02/14 16:57:42;;;;;;;1.48;0.57;;;12.90;99.90;;;;;;5070871;23;20260;-93
2024/02/14 16:59:48;;;;;;;2.33;0.75;;;12.90;99.90;;;;;;5070589;23;20585;-94
2024/02/14 17:01:53;;;;;;;7.18;1.55;;;12.90;99.90;;;;;;5069572;23;20169;-93
2024/02/14 17:04:01;;;;;;;0.90;0.55;;;12.90;99.90;;;;;;5070934;23;20158;-95
2024/02/14 17:06:05;;;;;;;4.47;1.00;;;12.90;99.90;;;;;;5071883;23;20557;-93
2024/02/14 17:08:06;;;;;;;4.97;1.10;;;13.00;99.90;;;;;;5047422;23;20207;-94
2024/02/14 17:10:08;;;;;;;2.42;1.15;;;12.90;99.90;;;;;;5045436;23;20162;-94
2024/02/14 17:12:18;;;;;;;1.10;0.65;;;12.90;99.90;;;;;;5069622;23;20236;-94
2024/02/14 17:14:26;;;;;;;1.75;0.82;;;12.90;99.90;;;;;;5044462;23;20166;-94
2024/02/14 17:16:30;;;;;;;4.65;1.10;;;12.90;99.90;;;;;;5046855;23;20161;-93
2024/02/14 17:18:40;;;;;;;3.28;1.27;;;13.00;99.90;;;;;;5044916;23;20186;-93
2024/02/14 17:21:02;;;;;;;1.50;0.85;;;12.90;99.90;;;;;;5048539;23;20157;-95
2024/02/14 17:23:08;;;;;;;6.95;1.73;;;13.00;99.90;;;;;;5023312;23;20578;-94
2024/02/14 17:25:10;;;;;;;2.63;0.82;;;13.00;99.90;;;;;;5024113;23;20192;-94
2024/02/14 17:27:11;;;;;;;1.13;0.80;;;13.00;99.90;;;;;;5045883;23;20146;-94
2024/02/14 17:29:14;;;;;;;6.95;1.10;;;13.00;99.90;;;;;;5073465;23;20153;-93
2024/02/14 17:31:15;;;;;;;2.38;0.70;;;12.90;99.90;;;;;;5046066;23;20155;-93
2024/02/14 17:33:17;;;;;;;1.40;0.90;;;12.90;99.90;;;;;;5047125;23;20644;-94
2024/02/14 17:35:18;;;;;;;1.85;0.95;;;12.90;99.90;;;;;;5022825;23;20159;-94
2024/02/14 17:37:19;;;;;;;3.35;1.08;;;12.80;99.90;;;;;;5022337;23;20192;-92
2024/02/14 17:39:20;;;;;;;2.42;0.90;;;12.80;99.90;;;;;;5044997;23;20245;-94
2024/02/14 17:41:27;;;;;;;2.58;0.90;;;12.80;99.90;;;;;;5045177;23;20629;-94
2024/02/14 17:43:28;;;;;;;2.78;1.17;;;12.80;99.90;;;;;;5048644;23;20154;-92
2024/02/14 17:45:29;;;;;;;8.63;2.35;;;12.90;99.90;;;;;;5070604;23;20162;-95
2024/02/14 17:47:30;;;;;;;8.63;1.92;;;12.90;99.90;;;;;;5045392;23;20181;-94
2024/02/14 17:49:31;;;;;;;12.88;0.88;;;12.90;99.90;;;;;;5045877;23;20164;-93
2024/02/14 17:51:33;;;;;;;4.13;0.77;;;13.00;99.90;;;;;;5044447;23;20193;-95
2024/02/14 17:53:33;;;;;;;5.50;1.00;;;12.90;99.90;;;;;;5045513;23;20189;-95
2024/02/14 17:55:35;;;;;;;2.70;1.10;;;12.80;99.90;;;;;;5047783;23;20668;-93
2024/02/14 17:57:36;;;;;;;1.63;0.70;;;12.80;99.90;;;;;;5046871;23;20178;-94
2024/02/14 17:59:38;;;;;;;4.32;0.90;;;12.80;99.90;;;;;;5046971;23;20246;-94
2024/02/14 18:01:41;;;;;;;4.38;1.13;;;12.80;99.90;;;;;;5050020;23;20218;-94
2024/02/14 18:03:43;;;;;;;1.77;0.75;;;12.80;99.90;;;;;;5046914;23;20166;-95
2024/02/14 18:05:46;;;;;;;4.32;1.05;;;12.80;99.90;;;;;;5046404;23;20165;-94
2024/02/14 18:07:47;;;;;;;1.67;0.70;;;12.80;99.90;;;;;;5047469;23;20182;-93
2024/02/14 18:09:51;;;;;;;2.80;0.77;;;12.80;99.90;;;;;;5050087;23;20229;-94
2024/02/14 18:11:52;;;;;;;2.95;1.00;;;12.80;99.90;;;;;;5074357;23;20158;-94
2024/02/14 18:13:53;;;;;;;5.00;0.82;;;12.80;99.90;;;;;;5022803;23;20642;-94